sensor_id;sensor_type;location;lat;lon;timestamp;P1;P2;P0
72031;PMS5003;49185;42.320;23.198;2022-12-07T00:01:07;15.00;15.00;5.50
72031;PMS5003;49185;42.320;23.198;2022-12-07T00:03:35;15.00;15.00;5.00
72031;PMS5003;49185;42.320;23.198;2022-12-07T00:06:02;17.50;16.50;6.50
72031;PMS5003;49185;42.320;23.198;2022-12-07T00:08:29;18.00;17.00;7.00
72031;PMS5003;49185;42.320;23.198;2022-12-07T00:10:55;16.00;16.00;5.25
72031;PMS5003;49185;42.320;23.198;2022-12-07T00:13:25;16.00;14.00;5.00
72031;PMS5003;49185;42.320;23.198;2022-12-07T00:15:50;15.00;13.00;4.00
72031;PMS5003;49185;42.320;23.198;2022-12-07T00:18:16;15.00;12.00;5.00
72031;PMS5003;49185;42.320;23.198;2022-12-07T00:20:41;14.67;12.00;5.00
72031;PMS5003;49185;42.320;23.198;2022-12-07T00:23:06;14.00;13.00;5.00
72031;PMS5003;49185;42.320;23.198;2022-12-07T00:25:32;15.00;14.00;5.00
72031;PMS5003;49185;42.320;23.198;2022-12-07T00:27:57;15.00;12.00;5.00
72031;PMS5003;49185;42.320;23.198;2022-12-07T00:30:23;15.00;12.33;5.00
72031;PMS5003;49185;42.320;23.198;2022-12-07T00:32:49;16.00;14.00;5.00
72031;PMS5003;49185;42.320;23.198;2022-12-07T00:35:14;15.75;13.25;6.00
72031;PMS5003;49185;42.320;23.198;2022-12-07T00:37:40;16.33;13.00;6.00
72031;PMS5003;49185;42.320;23.198;2022-12-07T00:40:06;16.00;12.00;6.00
72031;PMS5003;49185;42.320;23.198;2022-12-07T00:42:31;14.25;12.75;5.00
72031;PMS5003;49185;42.320;23.198;2022-12-07T00:44:57;15.00;14.00;5.33
72031;PMS5003;49185;42.320;23.198;2022-12-07T00:47:22;13.00;12.33;5.33
72031;PMS5003;49185;42.320;23.198;2022-12-07T00:49:48;15.33;14.33;9.00
72031;PMS5003;49185;42.320;23.198;2022-12-07T00:52:13;18.00;17.00;8.67
72031;PMS5003;49185;42.320;23.198;2022-12-07T00:54:39;21.00;20.00;9.00
72031;PMS5003;49185;42.320;23.198;2022-12-07T00:57:05;23.75;21.00;9.00
72031;PMS5003;49185;42.320;23.198;2022-12-07T00:59:30;24.67;20.00;8.00
72031;PMS5003;49185;42.320;23.198;2022-12-07T01:01:56;25.00;22.33;11.33
72031;PMS5003;49185;42.320;23.198;2022-12-07T01:04:21;23.33;22.33;11.33
72031;PMS5003;49185;42.320;23.198;2022-12-07T01:06:46;21.00;19.33;10.00
72031;PMS5003;49185;42.320;23.198;2022-12-07T01:09:12;20.00;20.00;10.67
72031;PMS5003;49185;42.320;23.198;2022-12-07T01:11:40;24.00;22.33;11.00
72031;PMS5003;49185;42.320;23.198;2022-12-07T01:14:05;26.00;24.00;14.25
72031;PMS5003;49185;42.320;23.198;2022-12-07T01:16:31;24.00;22.00;14.00
72031;PMS5003;49185;42.320;23.198;2022-12-07T01:18:57;20.00;17.50;10.00
72031;PMS5003;49185;42.320;23.198;2022-12-07T01:21:25;16.00;14.00;5.50
72031;PMS5003;49185;42.320;23.198;2022-12-07T01:23:53;15.50;14.00;5.00
72031;PMS5003;49185;42.320;23.198;2022-12-07T01:26:20;18.00;16.00;8.00
72031;PMS5003;49185;42.320;23.198;2022-12-07T01:28:47;19.00;17.25;7.00
72031;PMS5003;49185;42.320;23.198;2022-12-07T01:31:17;18.00;16.00;6.00
72031;PMS5003;49185;42.320;23.198;2022-12-07T01:33:45;14.00;14.00;5.25
72031;PMS5003;49185;42.320;23.198;2022-12-07T01:36:14;16.50;13.75;5.50
72031;PMS5003;49185;42.320;23.198;2022-12-07T01:38:46;14.00;11.00;5.00
72031;PMS5003;49185;42.320;23.198;2022-12-07T01:41:13;13.00;9.50;4.00
72031;PMS5003;49185;42.320;23.198;2022-12-07T01:46:35;10.25;9.25;4.00
72031;PMS5003;49185;42.320;23.198;2022-12-07T01:49:01;11.75;9.75;4.75
72031;PMS5003;49185;42.320;23.198;2022-12-07T01:51:30;11.50;10.00;5.00
72031;PMS5003;49185;42.320;23.198;2022-12-07T01:53:56;11.00;9.00;4.00
72031;PMS5003;49185;42.320;23.198;2022-12-07T01:56:23;11.33;7.33;4.00
72031;PMS5003;49185;42.320;23.198;2022-12-07T01:58:52;14.00;10.00;4.00
72031;PMS5003;49185;42.320;23.198;2022-12-07T02:01:19;11.50;10.00;4.00
72031;PMS5003;49185;42.320;23.198;2022-12-07T02:03:45;13.00;10.00;5.00
72031;PMS5003;49185;42.320;23.198;2022-12-07T02:06:12;12.33;8.67;3.00
72031;PMS5003;49185;42.320;23.198;2022-12-07T02:08:42;15.00;10.50;5.75
72031;PMS5003;49185;42.320;23.198;2022-12-07T02:11:08;14.00;11.00;4.00
72031;PMS5003;49185;42.320;23.198;2022-12-07T02:13:36;11.00;8.00;4.00
72031;PMS5003;49185;42.320;23.198;2022-12-07T02:18:57;9.75;9.25;4.50
72031;PMS5003;49185;42.320;23.198;2022-12-07T02:29:22;10.00;7.50;4.00
72031;PMS5003;49185;42.320;23.198;2022-12-07T02:32:38;9.00;8.50;3.00
72031;PMS5003;49185;42.320;23.198;2022-12-07T02:37:21;11.50;10.25;5.00
72031;PMS5003;49185;42.320;23.198;2022-12-07T02:40:16;10.00;9.25;4.00
72031;PMS5003;49185;42.320;23.198;2022-12-07T02:42:45;12.75;11.00;4.00
72031;PMS5003;49185;42.320;23.198;2022-12-07T02:45:14;16.75;15.50;6.25
72031;PMS5003;49185;42.320;23.198;2022-12-07T02:47:43;19.00;17.00;9.00
72031;PMS5003;49185;42.320;23.198;2022-12-07T02:50:11;17.50;17.00;6.00
72031;PMS5003;49185;42.320;23.198;2022-12-07T02:52:36;19.00;16.33;6.00
72031;PMS5003;49185;42.320;23.198;2022-12-07T02:55:02;14.00;12.00;4.00
72031;PMS5003;49185;42.320;23.198;2022-12-07T03:00:11;9.00;6.50;2.00
72031;PMS5003;49185;42.320;23.198;2022-12-07T03:05:36;9.75;6.75;1.50
72031;PMS5003;49185;42.320;23.198;2022-12-07T03:08:11;10.50;7.00;2.25
72031;PMS5003;49185;42.320;23.198;2022-12-07T03:13:49;12.75;11.00;4.25
72031;PMS5003;49185;42.320;23.198;2022-12-07T03:16:23;11.00;10.00;3.25
72031;PMS5003;49185;42.320;23.198;2022-12-07T03:19:06;10.00;9.00;4.00
72031;PMS5003;49185;42.320;23.198;2022-12-07T03:21:39;10.50;8.75;4.00
72031;PMS5003;49185;42.320;23.198;2022-12-07T03:24:09;9.75;8.75;4.00
72031;PMS5003;49185;42.320;23.198;2022-12-07T03:26:41;13.00;11.00;3.00
72031;PMS5003;49185;42.320;23.198;2022-12-07T03:29:17;11.00;9.50;3.00
72031;PMS5003;49185;42.320;23.198;2022-12-07T03:31:48;13.25;10.50;5.00
72031;PMS5003;49185;42.320;23.198;2022-12-07T03:34:38;15.00;12.25;5.00
72031;PMS5003;49185;42.320;23.198;2022-12-07T03:37:14;16.00;12.00;3.00
72031;PMS5003;49185;42.320;23.198;2022-12-07T03:42:22;15.00;12.00;5.00
72031;PMS5003;49185;42.320;23.198;2022-12-07T03:44:47;14.33;11.33;5.33
72031;PMS5003;49185;42.320;23.198;2022-12-07T03:50:35;11.75;11.50;5.00
72031;PMS5003;49185;42.320;23.198;2022-12-07T03:53:00;15.00;13.00;5.00
72031;PMS5003;49185;42.320;23.198;2022-12-07T03:55:34;17.00;12.00;5.50
72031;PMS5003;49185;42.320;23.198;2022-12-07T03:58:05;16.50;13.50;6.75
72031;PMS5003;49185;42.320;23.198;2022-12-07T04:00:35;19.00;17.50;9.50
72031;PMS5003;49185;42.320;23.198;2022-12-07T04:03:01;20.67;18.67;9.00
72031;PMS5003;49185;42.320;23.198;2022-12-07T04:05:26;23.33;20.00;11.00
72031;PMS5003;49185;42.320;23.198;2022-12-07T04:07:53;24.25;23.50;12.50
72031;PMS5003;49185;42.320;23.198;2022-12-07T04:10:18;27.00;24.67;13.00
72031;PMS5003;49185;42.320;23.198;2022-12-07T04:12:44;25.00;24.33;13.00
72031;PMS5003;49185;42.320;23.198;2022-12-07T04:15:09;29.33;26.67;16.00
72031;PMS5003;49185;42.320;23.198;2022-12-07T04:17:35;27.67;26.00;16.00
72031;PMS5003;49185;42.320;23.198;2022-12-07T04:20:00;25.67;24.00;16.00
72031;PMS5003;49185;42.320;23.198;2022-12-07T04:22:26;24.00;22.00;13.00
72031;PMS5003;49185;42.320;23.198;2022-12-07T04:24:51;22.67;20.33;11.00
72031;PMS5003;49185;42.320;23.198;2022-12-07T04:27:16;21.00;19.00;9.00
72031;PMS5003;49185;42.320;23.198;2022-12-07T04:29:42;21.00;18.33;7.00
72031;PMS5003;49185;42.320;23.198;2022-12-07T04:32:07;20.00;18.00;8.33
72031;PMS5003;49185;42.320;23.198;2022-12-07T04:34:34;21.67;19.67;9.67
72031;PMS5003;49185;42.320;23.198;2022-12-07T04:37:00;24.25;23.00;11.50
72031;PMS5003;49185;42.320;23.198;2022-12-07T04:39:26;28.67;25.00;13.33
72031;PMS5003;49185;42.320;23.198;2022-12-07T04:41:57;33.25;27.50;16.50
72031;PMS5003;49185;42.320;23.198;2022-12-07T04:44:23;36.75;29.00;18.00
72031;PMS5003;49185;42.320;23.198;2022-12-07T04:46:50;36.00;29.00;17.00
72031;PMS5003;49185;42.320;23.198;2022-12-07T04:49:17;28.25;26.00;15.25
72031;PMS5003;49185;42.320;23.198;2022-12-07T04:51:43;20.00;19.50;10.00
72031;PMS5003;49185;42.320;23.198;2022-12-07T04:54:09;16.00;15.00;5.75
72031;PMS5003;49185;42.320;23.198;2022-12-07T04:56:34;15.00;14.00;5.00
72031;PMS5003;49185;42.320;23.198;2022-12-07T04:59:00;11.00;10.00;3.00
72031;PMS5003;49185;42.320;23.198;2022-12-07T05:01:26;19.75;17.00;7.50
72031;PMS5003;49185;42.320;23.198;2022-12-07T05:03:52;19.00;17.00;7.00
72031;PMS5003;49185;42.320;23.198;2022-12-07T05:06:17;11.33;11.33;4.00
72031;PMS5003;49185;42.320;23.198;2022-12-07T05:08:43;6.33;6.33;3.00
72031;PMS5003;49185;42.320;23.198;2022-12-07T05:11:08;6.00;6.00;2.67
72031;PMS5003;49185;42.320;23.198;2022-12-07T05:13:35;12.75;10.75;5.00
72031;PMS5003;49185;42.320;23.198;2022-12-07T05:16:00;24.25;22.50;12.00
72031;PMS5003;49185;42.320;23.198;2022-12-07T05:18:26;30.00;27.00;14.33
72031;PMS5003;49185;42.320;23.198;2022-12-07T05:20:51;35.00;29.00;16.00
72031;PMS5003;49185;42.320;23.198;2022-12-07T05:23:17;29.00;24.67;14.33
72031;PMS5003;49185;42.320;23.198;2022-12-07T05:25:43;24.50;20.00;11.50
72031;PMS5003;49185;42.320;23.198;2022-12-07T05:28:09;23.75;21.50;10.00
72031;PMS5003;49185;42.320;23.198;2022-12-07T05:30:34;26.50;24.00;10.75
72031;PMS5003;49185;42.320;23.198;2022-12-07T05:33:00;25.67;21.67;11.00
72031;PMS5003;49185;42.320;23.198;2022-12-07T05:35:25;24.33;21.00;11.00
72031;PMS5003;49185;42.320;23.198;2022-12-07T05:37:51;28.67;25.00;13.67
72031;PMS5003;49185;42.320;23.198;2022-12-07T05:40:16;31.67;27.33;15.33
72031;PMS5003;49185;42.320;23.198;2022-12-07T05:42:42;38.00;31.33;18.00
72031;PMS5003;49185;42.320;23.198;2022-12-07T05:45:08;44.00;35.33;21.67
72031;PMS5003;49185;42.320;23.198;2022-12-07T05:47:34;50.50;39.50;25.00
72031;PMS5003;49185;42.320;23.198;2022-12-07T05:50:00;54.00;42.00;26.50
72031;PMS5003;49185;42.320;23.198;2022-12-07T05:52:26;53.00;42.00;25.33
72031;PMS5003;49185;42.320;23.198;2022-12-07T05:54:52;52.00;42.00;26.00
72031;PMS5003;49185;42.320;23.198;2022-12-07T05:57:17;55.50;43.25;26.50
72031;PMS5003;49185;42.320;23.198;2022-12-07T05:59:43;52.00;41.25;25.50
72031;PMS5003;49185;42.320;23.198;2022-12-07T06:02:10;48.00;39.00;24.00
72031;PMS5003;49185;42.320;23.198;2022-12-07T06:04:40;42.25;35.25;23.00
72031;PMS5003;49185;42.320;23.198;2022-12-07T06:07:07;40.00;33.75;21.50
72031;PMS5003;49185;42.320;23.198;2022-12-07T06:09:34;42.00;35.00;21.50
72031;PMS5003;49185;42.320;23.198;2022-12-07T06:12:00;46.00;38.00;23.50
72031;PMS5003;49185;42.320;23.198;2022-12-07T06:14:26;41.00;33.50;20.75
72031;PMS5003;49185;42.320;23.198;2022-12-07T06:16:51;31.00;27.00;18.00
72031;PMS5003;49185;42.320;23.198;2022-12-07T06:19:16;26.33;25.00;16.00
72031;PMS5003;49185;42.320;23.198;2022-12-07T06:21:42;25.00;25.00;15.00
72031;PMS5003;49185;42.320;23.198;2022-12-07T06:24:09;30.00;25.50;14.00
72031;PMS5003;49185;42.320;23.198;2022-12-07T06:26:36;31.50;26.00;15.50
72031;PMS5003;49185;42.320;23.198;2022-12-07T06:29:02;32.00;27.00;16.00
72031;PMS5003;49185;42.320;23.198;2022-12-07T06:31:27;35.33;29.67;18.00
72031;PMS5003;49185;42.320;23.198;2022-12-07T06:33:57;38.33;31.33;19.33
72031;PMS5003;49185;42.320;23.198;2022-12-07T06:36:23;39.25;32.25;20.50
72031;PMS5003;49185;42.320;23.198;2022-12-07T06:38:49;44.00;35.33;23.00
72031;PMS5003;49185;42.320;23.198;2022-12-07T06:41:14;40.67;33.00;22.00
72031;PMS5003;49185;42.320;23.198;2022-12-07T06:43:39;36.00;30.00;20.00
72031;PMS5003;49185;42.320;23.198;2022-12-07T06:46:05;38.00;30.00;19.00
72031;PMS5003;49185;42.320;23.198;2022-12-07T06:48:30;36.33;29.67;19.00
72031;PMS5003;49185;42.320;23.198;2022-12-07T06:50:55;40.33;32.67;20.00
72031;PMS5003;49185;42.320;23.198;2022-12-07T06:53:21;42.67;35.00;22.00
72031;PMS5003;49185;42.320;23.198;2022-12-07T06:55:47;43.00;35.00;22.00
72031;PMS5003;49185;42.320;23.198;2022-12-07T06:58:13;42.67;34.00;21.33
72031;PMS5003;49185;42.320;23.198;2022-12-07T07:00:38;38.00;31.67;20.00
72031;PMS5003;49185;42.320;23.198;2022-12-07T07:03:04;36.67;29.00;19.00
72031;PMS5003;49185;42.320;23.198;2022-12-07T07:05:29;41.33;33.00;20.00
72031;PMS5003;49185;42.320;23.198;2022-12-07T07:07:54;44.33;35.67;22.33
72031;PMS5003;49185;42.320;23.198;2022-12-07T07:10:20;42.33;34.00;22.00
72031;PMS5003;49185;42.320;23.198;2022-12-07T07:12:45;41.00;33.00;22.00
72031;PMS5003;49185;42.320;23.198;2022-12-07T07:15:11;38.00;30.00;19.00
72031;PMS5003;49185;42.320;23.198;2022-12-07T07:17:36;30.33;27.00;17.33
72031;PMS5003;49185;42.320;23.198;2022-12-07T07:20:01;31.00;27.33;16.33
72031;PMS5003;49185;42.320;23.198;2022-12-07T07:22:27;35.33;28.33;18.00
72031;PMS5003;49185;42.320;23.198;2022-12-07T07:24:52;46.00;36.00;23.33
72031;PMS5003;49185;42.320;23.198;2022-12-07T07:27:18;44.00;35.00;23.00
72031;PMS5003;49185;42.320;23.198;2022-12-07T07:29:43;43.00;35.67;23.00
72031;PMS5003;49185;42.320;23.198;2022-12-07T07:32:08;45.00;37.00;23.00
72031;PMS5003;49185;42.320;23.198;2022-12-07T07:34:34;45.67;37.67;22.33
72031;PMS5003;49185;42.320;23.198;2022-12-07T07:36:59;41.00;35.00;21.33
72031;PMS5003;49185;42.320;23.198;2022-12-07T07:39:25;32.67;29.00;18.00
72031;PMS5003;49185;42.320;23.198;2022-12-07T07:41:51;27.00;26.00;17.00
72031;PMS5003;49185;42.320;23.198;2022-12-07T07:44:17;26.33;25.00;16.00
72031;PMS5003;49185;42.320;23.198;2022-12-07T07:46:42;26.00;25.00;15.00
72031;PMS5003;49185;42.320;23.198;2022-12-07T07:49:08;28.67;25.67;14.00
72031;PMS5003;49185;42.320;23.198;2022-12-07T07:51:35;26.00;23.75;12.00
72031;PMS5003;49185;42.320;23.198;2022-12-07T07:54:00;24.00;23.33;11.67
72031;PMS5003;49185;42.320;23.198;2022-12-07T07:56:25;26.67;25.67;12.33
72031;PMS5003;49185;42.320;23.198;2022-12-07T07:58:51;24.00;23.00;13.00
72031;PMS5003;49185;42.320;23.198;2022-12-07T08:01:17;24.75;23.50;12.50
72031;PMS5003;49185;42.320;23.198;2022-12-07T08:03:43;25.33;21.67;13.00
72031;PMS5003;49185;42.320;23.198;2022-12-07T08:06:08;21.00;21.00;11.67
72031;PMS5003;49185;42.320;23.198;2022-12-07T08:08:33;22.00;21.00;9.00
72031;PMS5003;49185;42.320;23.198;2022-12-07T08:10:59;24.00;23.00;13.00
72031;PMS5003;49185;42.320;23.198;2022-12-07T08:13:24;26.67;24.33;13.00
72031;PMS5003;49185;42.320;23.198;2022-12-07T08:15:49;25.00;22.33;13.00
72031;PMS5003;49185;42.320;23.198;2022-12-07T08:18:15;21.33;21.00;8.00
72031;PMS5003;49185;42.320;23.198;2022-12-07T08:20:41;21.00;20.00;8.00
72031;PMS5003;49185;42.320;23.198;2022-12-07T08:23:07;20.00;18.75;6.25
72031;PMS5003;49185;42.320;23.198;2022-12-07T08:25:33;20.00;19.00;8.00
72031;PMS5003;49185;42.320;23.198;2022-12-07T08:27:59;19.50;18.50;6.00
72031;PMS5003;49185;42.320;23.198;2022-12-07T08:30:26;19.00;17.00;6.00
72031;PMS5003;49185;42.320;23.198;2022-12-07T08:32:52;19.75;16.75;5.25
72031;PMS5003;49185;42.320;23.198;2022-12-07T08:35:18;18.00;17.50;6.50
72031;PMS5003;49185;42.320;23.198;2022-12-07T08:37:43;19.33;18.33;6.00
72031;PMS5003;49185;42.320;23.198;2022-12-07T08:40:09;19.00;18.00;6.00
72031;PMS5003;49185;42.320;23.198;2022-12-07T08:42:36;19.75;16.50;6.75
72031;PMS5003;49185;42.320;23.198;2022-12-07T08:45:01;18.67;16.00;6.00
72031;PMS5003;49185;42.320;23.198;2022-12-07T08:47:27;15.00;13.33;4.67
72031;PMS5003;49185;42.320;23.198;2022-12-07T08:49:52;13.67;13.00;5.00
72031;PMS5003;49185;42.320;23.198;2022-12-07T08:52:19;13.75;13.00;6.00
72031;PMS5003;49185;42.320;23.198;2022-12-07T08:54:44;17.00;15.67;7.00
72031;PMS5003;49185;42.320;23.198;2022-12-07T08:57:10;19.00;16.75;7.00
72031;PMS5003;49185;42.320;23.198;2022-12-07T08:59:37;18.00;17.25;6.00
72031;PMS5003;49185;42.320;23.198;2022-12-07T09:02:04;18.00;18.00;7.00
72031;PMS5003;49185;42.320;23.198;2022-12-07T09:04:30;18.00;18.00;7.00
72031;PMS5003;49185;42.320;23.198;2022-12-07T09:06:55;18.67;17.33;8.67
72031;PMS5003;49185;42.320;23.198;2022-12-07T09:09:21;21.00;18.00;8.33
72031;PMS5003;49185;42.320;23.198;2022-12-07T09:11:46;19.00;17.00;8.00
72031;PMS5003;49185;42.320;23.198;2022-12-07T09:14:12;19.33;18.67;9.33
72031;PMS5003;49185;42.320;23.198;2022-12-07T09:16:38;21.50;20.75;10.75
72031;PMS5003;49185;42.320;23.198;2022-12-07T09:19:03;26.33;25.33;14.00
72031;PMS5003;49185;42.320;23.198;2022-12-07T09:21:29;25.00;24.50;13.00
72031;PMS5003;49185;42.320;23.198;2022-12-07T09:23:55;26.33;25.33;14.00
72031;PMS5003;49185;42.320;23.198;2022-12-07T09:26:20;28.67;26.33;15.33
72031;PMS5003;49185;42.320;23.198;2022-12-07T09:28:45;27.00;26.00;15.00
72031;PMS5003;49185;42.320;23.198;2022-12-07T09:31:11;26.67;25.67;14.67
72031;PMS5003;49185;42.320;23.198;2022-12-07T09:33:36;33.67;31.33;17.67
72031;PMS5003;49185;42.320;23.198;2022-12-07T09:36:03;32.00;31.00;18.00
72031;PMS5003;49185;42.320;23.198;2022-12-07T09:38:29;31.50;28.00;17.75
72031;PMS5003;49185;42.320;23.198;2022-12-07T09:40:54;32.33;30.00;17.33
72031;PMS5003;49185;42.320;23.198;2022-12-07T09:43:24;30.00;28.00;18.00
72031;PMS5003;49185;42.320;23.198;2022-12-07T09:45:51;29.00;28.00;17.00
72031;PMS5003;49185;42.320;23.198;2022-12-07T09:48:25;20.75;20.50;10.50
72031;PMS5003;49185;42.320;23.198;2022-12-07T09:50:58;19.00;17.00;7.00
72031;PMS5003;49185;42.320;23.198;2022-12-07T09:53:35;21.00;17.00;7.00
72031;PMS5003;49185;42.320;23.198;2022-12-07T09:56:03;20.75;17.25;6.75
72031;PMS5003;49185;42.320;23.198;2022-12-07T09:58:30;20.50;17.00;7.25
72031;PMS5003;49185;42.320;23.198;2022-12-07T10:01:05;20.00;19.00;8.00
72031;PMS5003;49185;42.320;23.198;2022-12-07T10:03:34;18.00;18.00;5.50
72031;PMS5003;49185;42.320;23.198;2022-12-07T10:06:02;17.50;17.00;6.00
72031;PMS5003;49185;42.320;23.198;2022-12-07T10:08:29;16.00;13.00;5.00
72031;PMS5003;49185;42.320;23.198;2022-12-07T10:10:55;12.67;9.00;5.00
72031;PMS5003;49185;42.320;23.198;2022-12-07T10:13:23;13.00;10.25;3.00
72031;PMS5003;49185;42.320;23.198;2022-12-07T10:16:04;11.00;9.00;3.00
72031;PMS5003;49185;42.320;23.198;2022-12-07T10:18:31;13.50;9.50;4.50
72031;PMS5003;49185;42.320;23.198;2022-12-07T10:23:35;13.00;9.75;4.00
72031;PMS5003;49185;42.320;23.198;2022-12-07T10:31:53;8.00;6.00;3.00
72031;PMS5003;49185;42.320;23.198;2022-12-07T10:34:23;9.00;7.75;3.25
72031;PMS5003;49185;42.320;23.198;2022-12-07T10:36:53;9.00;8.00;5.00
72031;PMS5003;49185;42.320;23.198;2022-12-07T10:39:55;11.75;10.50;5.00
72031;PMS5003;49185;42.320;23.198;2022-12-07T10:42:26;15.00;14.00;5.50
72031;PMS5003;49185;42.320;23.198;2022-12-07T10:58:48;22.00;21.00;8.75
72031;PMS5003;49185;42.320;23.198;2022-12-07T11:07:28;17.00;17.00;6.50
72031;PMS5003;49185;42.320;23.198;2022-12-07T11:18:23;28.75;23.25;10.00
72031;PMS5003;49185;42.320;23.198;2022-12-07T11:23:49;19.25;17.50;7.00
72031;PMS5003;49185;42.320;23.198;2022-12-07T11:34:22;21.75;17.00;7.00
72031;PMS5003;49185;42.320;23.198;2022-12-07T11:37:05;19.00;17.00;7.75
72031;PMS5003;49185;42.320;23.198;2022-12-07T11:39:39;18.50;18.00;7.00
72031;PMS5003;49185;42.320;23.198;2022-12-07T11:42:16;18.00;16.75;5.75
72031;PMS5003;49185;42.320;23.198;2022-12-07T11:47:50;20.00;16.50;7.50
72031;PMS5003;49185;42.320;23.198;2022-12-07T11:53:36;26.00;23.25;13.00
72031;PMS5003;49185;42.320;23.198;2022-12-07T11:56:26;23.50;21.75;8.00
72031;PMS5003;49185;42.320;23.198;2022-12-07T11:59:19;19.75;18.50;6.00
72031;PMS5003;49185;42.320;23.198;2022-12-07T12:02:16;18.00;15.75;5.00
72031;PMS5003;49185;42.320;23.198;2022-12-07T12:07:22;15.00;12.50;5.00
72031;PMS5003;49185;42.320;23.198;2022-12-07T12:09:52;16.00;15.00;6.00
72031;PMS5003;49185;42.320;23.198;2022-12-07T12:20:52;6.00;4.75;1.00
72031;PMS5003;49185;42.320;23.198;2022-12-07T12:23:43;7.50;5.00;1.00
72031;PMS5003;49185;42.320;23.198;2022-12-07T12:26:17;3.00;3.00;0.00
72031;PMS5003;49185;42.320;23.198;2022-12-07T12:33:49;4.33;4.00;1.00
72031;PMS5003;49185;42.320;23.198;2022-12-07T12:36:18;8.00;7.25;2.00
72031;PMS5003;49185;42.320;23.198;2022-12-07T12:44:00;9.00;6.25;2.00
72031;PMS5003;49185;42.320;23.198;2022-12-07T12:48:55;28.25;27.00;14.25
72031;PMS5003;49185;42.320;23.198;2022-12-07T12:51:40;23.50;22.75;10.00
72031;PMS5003;49185;42.320;23.198;2022-12-07T12:57:01;16.25;15.25;5.00
72031;PMS5003;49185;42.320;23.198;2022-12-07T12:59:34;19.25;18.50;8.00
72031;PMS5003;49185;42.320;23.198;2022-12-07T13:15:36;24.00;22.00;10.00
72031;PMS5003;49185;42.320;23.198;2022-12-07T13:18:23;23.50;22.00;11.00
72031;PMS5003;49185;42.320;23.198;2022-12-07T13:23:38;20.00;19.00;8.00
72031;PMS5003;49185;42.320;23.198;2022-12-07T13:28:43;15.00;13.00;6.00
72031;PMS5003;49185;42.320;23.198;2022-12-07T13:31:14;10.75;8.00;3.75
72031;PMS5003;49185;42.320;23.198;2022-12-07T13:33:42;9.25;9.00;3.00
72031;PMS5003;49185;42.320;23.198;2022-12-07T13:36:45;8.00;8.00;3.00
72031;PMS5003;49185;42.320;23.198;2022-12-07T13:39:23;7.75;7.75;2.00
72031;PMS5003;49185;42.320;23.198;2022-12-07T13:41:51;11.00;9.50;4.00
72031;PMS5003;49185;42.320;23.198;2022-12-07T13:44:19;11.50;8.00;4.00
72031;PMS5003;49185;42.320;23.198;2022-12-07T13:49:26;8.00;6.50;2.00
72031;PMS5003;49185;42.320;23.198;2022-12-07T13:54:59;5.00;4.50;1.00
72031;PMS5003;49185;42.320;23.198;2022-12-07T13:57:27;5.25;5.25;2.00
72031;PMS5003;49185;42.320;23.198;2022-12-07T13:59:54;6.00;6.00;2.00
72031;PMS5003;49185;42.320;23.198;2022-12-07T14:02:21;6.33;5.33;2.00
72031;PMS5003;49185;42.320;23.198;2022-12-07T14:04:50;8.00;4.00;1.00
72031;PMS5003;49185;42.320;23.198;2022-12-07T14:09:54;7.00;6.75;1.00
72031;PMS5003;49185;42.320;23.198;2022-12-07T14:12:21;10.00;9.75;3.50
72031;PMS5003;49185;42.320;23.198;2022-12-07T14:14:47;11.00;10.00;4.75
72031;PMS5003;49185;42.320;23.198;2022-12-07T14:17:15;11.25;8.25;4.00
72031;PMS5003;49185;42.320;23.198;2022-12-07T14:19:50;10.00;8.00;4.00
72031;PMS5003;49185;42.320;23.198;2022-12-07T14:22:19;9.75;9.25;5.00
72031;PMS5003;49185;42.320;23.198;2022-12-07T14:24:45;12.00;11.50;4.00
72031;PMS5003;49185;42.320;23.198;2022-12-07T14:27:17;14.67;13.33;5.67
72031;PMS5003;49185;42.320;23.198;2022-12-07T14:29:47;16.00;16.00;4.50
72031;PMS5003;49185;42.320;23.198;2022-12-07T14:34:53;20.00;17.00;7.00
72031;PMS5003;49185;42.320;23.198;2022-12-07T14:37:23;20.00;19.00;9.50
72031;PMS5003;49185;42.320;23.198;2022-12-07T14:39:49;21.50;20.25;9.75
72031;PMS5003;49185;42.320;23.198;2022-12-07T14:42:15;22.33;20.00;9.67
72031;PMS5003;49185;42.320;23.198;2022-12-07T14:44:41;25.50;22.50;10.50
72031;PMS5003;49185;42.320;23.198;2022-12-07T14:47:08;30.67;27.00;14.33
72031;PMS5003;49185;42.320;23.198;2022-12-07T14:49:35;27.25;25.50;15.00
72031;PMS5003;49185;42.320;23.198;2022-12-07T14:52:02;18.25;17.50;8.00
72031;PMS5003;49185;42.320;23.198;2022-12-07T14:54:29;14.00;12.50;4.00
72031;PMS5003;49185;42.320;23.198;2022-12-07T14:56:57;12.25;11.50;4.00
72031;PMS5003;49185;42.320;23.198;2022-12-07T14:59:23;11.75;11.75;5.25
72031;PMS5003;49185;42.320;23.198;2022-12-07T15:01:49;15.00;12.00;4.00
72031;PMS5003;49185;42.320;23.198;2022-12-07T15:04:14;12.00;10.00;3.00
72031;PMS5003;49185;42.320;23.198;2022-12-07T15:06:40;13.00;11.33;5.00
72031;PMS5003;49185;42.320;23.198;2022-12-07T15:09:05;26.00;25.33;13.00
72031;PMS5003;49185;42.320;23.198;2022-12-07T15:11:31;35.00;31.33;19.00
72031;PMS5003;49185;42.320;23.198;2022-12-07T15:13:56;46.00;37.67;22.33
72031;PMS5003;49185;42.320;23.198;2022-12-07T15:16:22;63.33;51.33;30.67
72031;PMS5003;49185;42.320;23.198;2022-12-07T15:18:47;75.33;69.33;42.00
72031;PMS5003;49185;42.320;23.198;2022-12-07T15:21:13;71.33;65.00;38.67
72031;PMS5003;49185;42.320;23.198;2022-12-07T15:23:40;64.00;53.75;32.00
72031;PMS5003;49185;42.320;23.198;2022-12-07T15:26:05;65.33;55.33;31.67
72031;PMS5003;49185;42.320;23.198;2022-12-07T15:28:31;64.33;53.33;33.00
72031;PMS5003;49185;42.320;23.198;2022-12-07T15:30:56;60.33;47.00;30.00
72031;PMS5003;49185;42.320;23.198;2022-12-07T15:33:22;52.33;41.67;27.00
72031;PMS5003;49185;42.320;23.198;2022-12-07T15:35:47;46.67;37.00;24.00
72031;PMS5003;49185;42.320;23.198;2022-12-07T15:38:13;41.00;34.00;23.00
72031;PMS5003;49185;42.320;23.198;2022-12-07T15:40:39;41.33;32.33;23.00
72031;PMS5003;49185;42.320;23.198;2022-12-07T15:43:05;41.25;33.75;21.00
72031;PMS5003;49185;42.320;23.198;2022-12-07T15:45:31;45.25;37.50;22.75
72031;PMS5003;49185;42.320;23.198;2022-12-07T15:47:56;52.00;41.00;25.00
72031;PMS5003;49185;42.320;23.198;2022-12-07T15:50:22;56.00;44.00;28.00
72031;PMS5003;49185;42.320;23.198;2022-12-07T15:52:48;53.67;43.00;28.00
72031;PMS5003;49185;42.320;23.198;2022-12-07T15:55:13;57.50;45.00;28.50
72031;PMS5003;49185;42.320;23.198;2022-12-07T15:57:40;60.00;48.00;29.75
72031;PMS5003;49185;42.320;23.198;2022-12-07T16:00:06;59.00;47.00;29.00
72031;PMS5003;49185;42.320;23.198;2022-12-07T16:02:33;58.75;46.50;29.00
72031;PMS5003;49185;42.320;23.198;2022-12-07T16:05:00;63.75;52.75;32.75
72031;PMS5003;49185;42.320;23.198;2022-12-07T16:07:25;61.00;48.50;32.00
72031;PMS5003;49185;42.320;23.198;2022-12-07T16:09:51;62.00;51.00;31.33